Time;durP1;ratioP1;P1;durP2;ratioP2;P2;SDS_P1;SDS_P2;PMS_P1;PMS_P2;Temp;Humidity;BMP_temperature;BMP_pressure;BME280_temperature;BME280_humidity;BME280_pressure;Samples;Min_cycle;Max_cycle;Signal;HPM_P1;HPM_P2
2022/08/31 00:06:09;;;;;;;1.40;1.30;;;18.00;99.90;;;;;;5090265;28;20261;-67
2022/08/31 00:08:36;;;;;;;2.37;1.60;;;18.00;99.90;;;;;;5090103;28;20203;-67
2022/08/31 00:14:25;;;;;;;3.73;1.70;;;18.00;99.90;;;;;;5098120;28;20690;-67
2022/08/31 00:16:52;;;;;;;2.73;1.60;;;18.00;99.90;;;;;;5110223;28;20198;-67
2022/08/31 00:19:19;;;;;;;3.47;1.70;;;17.90;99.90;;;;;;5110633;28;20206;-67
2022/08/31 00:21:47;;;;;;;2.63;1.80;;;17.80;99.90;;;;;;5103393;28;20649;-67
2022/08/31 00:24:14;;;;;;;2.93;2.13;;;17.90;99.90;;;;;;5105183;28;20222;-67
2022/08/31 00:26:42;;;;;;;3.83;2.10;;;17.80;99.90;;;;;;5108412;28;20652;-67
2022/08/31 00:29:09;;;;;;;3.40;1.60;;;17.70;99.90;;;;;;5110248;28;20210;-70
2022/08/31 00:31:36;;;;;;;2.13;1.60;;;17.70;99.90;;;;;;5109033;28;20202;-70
2022/08/31 00:34:03;;;;;;;1.60;1.50;;;17.70;99.90;;;;;;5094048;28;20224;-70
2022/08/31 00:36:30;;;;;;;1.67;1.50;;;17.70;99.90;;;;;;5110325;28;20206;-70
2022/08/31 00:38:58;;;;;;;1.60;1.50;;;17.70;99.90;;;;;;5104872;28;20195;-70
2022/08/31 00:41:30;;;;;;;1.87;1.40;;;17.60;99.90;;;;;;5110155;28;20316;-69
2022/08/31 00:43:59;;;;;;;1.57;1.47;;;17.60;99.90;;;;;;5109944;28;20190;-69
2022/08/31 00:46:30;;;;;;;2.57;1.67;;;17.60;99.90;;;;;;5110115;28;20206;-69
2022/08/31 00:49:02;;;;;;;1.90;1.50;;;17.60;99.90;;;;;;5109381;28;20205;-69
2022/08/31 00:51:32;;;;;;;2.47;1.50;;;17.50;99.90;;;;;;5109935;28;20286;-69
2022/08/31 00:54:00;;;;;;;2.20;1.40;;;17.60;99.90;;;;;;5110208;28;20212;-69
2022/08/31 00:56:30;;;;;;;1.73;1.60;;;17.60;99.90;;;;;;5109834;28;20210;-69
2022/08/31 00:58:59;;;;;;;2.03;1.60;;;17.50;99.90;;;;;;5107300;28;20259;-69
2022/08/31 01:01:27;;;;;;;1.47;1.37;;;17.50;99.90;;;;;;5089516;28;20262;-69
2022/08/31 01:03:54;;;;;;;1.40;1.40;;;17.40;99.90;;;;;;5089258;28;20206;-69
2022/08/31 01:06:22;;;;;;;1.80;1.70;;;17.30;99.90;;;;;;5089459;28;20199;-70
2022/08/31 01:08:50;;;;;;;1.40;1.30;;;17.30;99.90;;;;;;5089614;28;20668;-69
2022/08/31 01:11:19;;;;;;;1.53;1.43;;;17.30;99.90;;;;;;5089631;28;20347;-69
2022/08/31 01:13:46;;;;;;;2.40;1.63;;;17.30;99.90;;;;;;5089134;28;20941;-68
2022/08/31 01:16:18;;;;;;;2.93;1.50;;;17.30;99.90;;;;;;5089180;28;20206;-68
2022/08/31 01:18:46;;;;;;;4.47;2.20;;;17.30;99.90;;;;;;5089147;28;20213;-68
2022/08/31 01:21:24;;;;;;;2.30;1.63;;;17.30;99.90;;;;;;5092853;28;20699;-68
2022/08/31 01:23:54;;;;;;;2.50;1.37;;;17.30;99.90;;;;;;5109485;28;20213;-68
2022/08/31 01:26:25;;;;;;;1.07;1.00;;;17.30;99.90;;;;;;5109561;28;20187;-68
2022/08/31 01:28:56;;;;;;;2.73;1.37;;;17.30;99.90;;;;;;5105274;28;20198;-71
2022/08/31 01:31:25;;;;;;;2.47;1.40;;;17.30;99.90;;;;;;5101473;28;20206;-68
2022/08/31 01:33:52;;;;;;;1.97;1.47;;;17.20;99.90;;;;;;5101629;28;20310;-68
2022/08/31 01:36:20;;;;;;;3.07;1.60;;;17.20;99.90;;;;;;5091312;28;20195;-68
2022/08/31 01:38:47;;;;;;;1.40;1.30;;;17.20;99.90;;;;;;5102548;28;20201;-68
2022/08/31 01:41:16;;;;;;;1.83;1.70;;;17.10;99.90;;;;;;5088521;28;20230;-68
2022/08/31 01:43:43;;;;;;;1.47;1.37;;;17.10;99.90;;;;;;5092961;28;20198;-68
2022/08/31 01:46:12;;;;;;;5.60;1.33;;;17.00;99.90;;;;;;5108799;28;20227;-68
2022/08/31 01:48:40;;;;;;;2.93;1.63;;;17.00;99.90;;;;;;5106457;28;20214;-68
2022/08/31 01:51:08;;;;;;;1.53;1.43;;;17.10;99.90;;;;;;5088496;28;20203;-68
2022/08/31 01:53:35;;;;;;;1.50;1.10;;;17.10;99.90;;;;;;5092953;28;20198;-68
2022/08/31 01:56:05;;;;;;;2.40;1.53;;;17.10;99.90;;;;;;5093861;28;20582;-68
2022/08/31 01:58:33;;;;;;;1.20;1.20;;;17.20;99.90;;;;;;5089184;28;20661;-68
2022/08/31 02:01:00;;;;;;;2.10;1.43;;;17.20;99.90;;;;;;5108052;28;20249;-68
2022/08/31 02:03:27;;;;;;;2.03;1.30;;;17.20;99.90;;;;;;5108801;27;20206;-68
2022/08/31 02:05:54;;;;;;;1.47;1.20;;;17.20;99.90;;;;;;5108809;28;20221;-68
2022/08/31 02:08:21;;;;;;;2.63;1.47;;;17.30;99.90;;;;;;5106244;28;20198;-68
2022/08/31 02:10:48;;;;;;;2.60;1.50;;;17.30;99.90;;;;;;5087909;28;20261;-68
2022/08/31 02:13:15;;;;;;;2.80;1.70;;;17.30;99.90;;;;;;5088308;28;20207;-68
2022/08/31 02:15:43;;;;;;;2.47;1.57;;;17.20;99.90;;;;;;5087948;28;20206;-69
2022/08/31 02:18:09;;;;;;;3.23;1.47;;;17.30;99.90;;;;;;5097335;28;20647;-67
2022/08/31 02:20:36;;;;;;;1.80;1.40;;;17.30;99.90;;;;;;5095755;28;20218;-66
2022/08/31 02:23:03;;;;;;;1.40;1.30;;;17.30;99.90;;;;;;5108276;28;20672;-67
2022/08/31 02:25:31;;;;;;;2.03;1.17;;;17.30;99.90;;;;;;5108362;28;20202;-67
2022/08/31 02:27:58;;;;;;;1.43;1.30;;;17.30;99.90;;;;;;5105547;28;21033;-67
2022/08/31 02:30:25;;;;;;;1.90;1.50;;;17.30;99.90;;;;;;5105305;28;20218;-67
2022/08/31 02:32:53;;;;;;;3.17;1.40;;;17.20;99.90;;;;;;5090836;28;20290;-67
2022/08/31 02:35:20;;;;;;;3.17;1.47;;;17.20;99.90;;;;;;5086118;28;20229;-67
2022/08/31 02:37:47;;;;;;;2.93;1.63;;;17.20;99.90;;;;;;5085531;28;20212;-67
2022/08/31 02:40:14;;;;;;;2.43;1.83;;;17.10;99.90;;;;;;5103582;28;20357;-67
2022/08/31 02:42:41;;;;;;;2.17;1.97;;;17.20;99.90;;;;;;5105811;28;20253;-67
2022/08/31 02:45:08;;;;;;;1.63;1.30;;;17.20;99.90;;;;;;5090712;28;20886;-67
2022/08/31 02:47:35;;;;;;;4.00;1.70;;;17.10;99.90;;;;;;5089143;28;20204;-67
2022/08/31 02:50:05;;;;;;;1.70;1.60;;;17.20;99.90;;;;;;5105669;28;20210;-67
2022/08/31 02:52:32;;;;;;;2.57;1.70;;;17.10;99.90;;;;;;5105409;28;20715;-67
2022/08/31 02:54:59;;;;;;;2.57;1.80;;;17.10;99.90;;;;;;5093080;28;20716;-67
2022/08/31 02:57:26;;;;;;;1.30;1.03;;;17.10;99.90;;;;;;5086041;28;20217;-67
2022/08/31 02:59:53;;;;;;;3.20;1.40;;;17.00;99.90;;;;;;5086425;28;20194;-67
2022/08/31 03:02:21;;;;;;;1.57;1.47;;;17.00;99.90;;;;;;5089760;28;20631;-67
2022/08/31 03:04:48;;;;;;;4.33;1.50;;;17.10;99.90;;;;;;5085768;28;20210;-67
2022/08/31 03:07:17;;;;;;;2.57;1.50;;;17.00;99.90;;;;;;5099280;28;20216;-67
2022/08/31 03:09:44;;;;;;;1.40;1.30;;;17.00;99.90;;;;;;5086215;28;20309;-67
2022/08/31 03:12:11;;;;;;;2.77;1.77;;;17.00;99.90;;;;;;5086410;28;20211;-67
2022/08/31 03:14:37;;;;;;;1.83;1.40;;;17.00;99.90;;;;;;5097803;28;20210;-67
2022/08/31 03:17:04;;;;;;;3.03;1.90;;;17.00;99.90;;;;;;5106173;28;20213;-67
2022/08/31 03:19:31;;;;;;;3.23;1.80;;;17.00;99.90;;;;;;5106482;28;20660;-67
2022/08/31 03:21:58;;;;;;;2.53;1.80;;;17.00;99.90;;;;;;5106559;28;20253;-68
2022/08/31 03:24:27;;;;;;;2.00;1.70;;;17.00;99.90;;;;;;5107017;28;20195;-67
2022/08/31 03:26:53;;;;;;;2.43;1.83;;;17.00;99.90;;;;;;5107179;28;20208;-67
2022/08/31 03:29:20;;;;;;;2.07;1.80;;;17.00;99.90;;;;;;5107677;28;20221;-67
2022/08/31 03:31:47;;;;;;;1.80;1.70;;;16.90;99.90;;;;;;5107488;28;21089;-67
2022/08/31 03:34:14;;;;;;;2.30;1.60;;;17.00;99.90;;;;;;5107410;28;20681;-67
2022/08/31 03:36:40;;;;;;;3.73;1.80;;;16.90;99.90;;;;;;5107488;28;20198;-67
2022/08/31 03:39:07;;;;;;;3.10;2.13;;;16.80;99.90;;;;;;5107878;28;20206;-67
2022/08/31 03:41:35;;;;;;;1.87;1.20;;;16.80;99.90;;;;;;5107110;28;20225;-68
2022/08/31 03:44:04;;;;;;;2.57;1.67;;;16.80;99.90;;;;;;5107703;28;20208;-67
2022/08/31 03:46:33;;;;;;;2.60;1.80;;;16.80;99.90;;;;;;5107357;28;20230;-68
2022/08/31 03:49:01;;;;;;;2.43;2.00;;;16.70;99.90;;;;;;5107576;28;20267;-68
2022/08/31 03:51:28;;;;;;;1.97;1.87;;;16.70;99.90;;;;;;5107440;28;20237;-67
2022/08/31 03:53:55;;;;;;;3.17;2.00;;;16.70;99.90;;;;;;5099817;28;20221;-67
2022/08/31 03:56:22;;;;;;;2.20;2.00;;;16.60;99.90;;;;;;5086947;28;20207;-67
2022/08/31 03:58:50;;;;;;;3.53;1.83;;;16.60;99.90;;;;;;5087050;28;20199;-67
2022/08/31 04:01:17;;;;;;;2.93;1.80;;;16.60;99.90;;;;;;5086594;28;20693;-67
2022/08/31 04:03:44;;;;;;;3.30;2.07;;;16.60;99.90;;;;;;5086710;28;20206;-67
2022/08/31 04:06:12;;;;;;;3.90;2.20;;;16.60;99.90;;;;;;5093255;28;20240;-67
2022/08/31 04:08:39;;;;;;;2.13;1.67;;;16.60;99.90;;;;;;5110936;27;20210;-67
2022/08/31 04:11:09;;;;;;;2.93;2.00;;;16.60;99.90;;;;;;5097169;28;20237;-67
2022/08/31 04:13:37;;;;;;;2.27;2.00;;;16.50;99.90;;;;;;5090686;28;20626;-67
2022/08/31 04:16:10;;;;;;;2.20;2.10;;;16.50;99.90;;;;;;5090261;28;20217;-67
2022/08/31 04:18:38;;;;;;;4.33;2.17;;;16.50;99.90;;;;;;5090425;28;20269;-67
2022/08/31 04:21:11;;;;;;;2.83;2.13;;;16.50;99.90;;;;;;5102583;28;20209;-67
2022/08/31 04:23:39;;;;;;;2.00;1.90;;;16.50;99.90;;;;;;5110790;28;20206;-67
2022/08/31 04:26:21;;;;;;;2.03;1.90;;;16.40;99.90;;;;;;5110358;28;20682;-68
2022/08/31 04:28:48;;;;;;;2.83;2.00;;;16.40;99.90;;;;;;5110284;28;20641;-67
2022/08/31 04:31:17;;;;;;;2.37;1.97;;;16.40;99.90;;;;;;5110205;28;20785;-67
2022/08/31 04:33:44;;;;;;;5.10;2.00;;;16.40;99.90;;;;;;5110436;28;20206;-67
2022/08/31 04:36:13;;;;;;;3.43;1.80;;;16.40;99.90;;;;;;5110169;28;20661;-67
2022/08/31 04:38:42;;;;;;;9.13;7.53;;;16.40;99.90;;;;;;5105072;28;20202;-67
2022/08/31 04:41:11;;;;;;;5.07;3.03;;;16.40;99.90;;;;;;5089986;28;20225;-68
2022/08/31 04:43:39;;;;;;;2.67;2.47;;;16.40;99.90;;;;;;5101545;28;20198;-67
2022/08/31 04:46:08;;;;;;;3.30;2.30;;;16.40;99.90;;;;;;5110363;28;20202;-67
2022/08/31 04:48:36;;;;;;;2.40;2.20;;;16.40;99.90;;;;;;5110289;28;20202;-67
2022/08/31 04:51:06;;;;;;;7.63;2.40;;;16.40;99.90;;;;;;5109948;27;20210;-68
2022/08/31 04:53:33;;;;;;;4.37;2.23;;;16.40;99.90;;;;;;5110089;28;20202;-67
2022/08/31 04:56:08;;;;;;;3.37;1.97;;;16.40;99.90;;;;;;5109888;28;20694;-67
2022/08/31 04:58:35;;;;;;;4.27;2.40;;;16.40;99.90;;;;;;5109836;28;20201;-68
2022/08/31 05:01:02;;;;;;;4.97;2.63;;;16.30;99.90;;;;;;5109780;27;20202;-67
2022/08/31 05:03:29;;;;;;;4.10;2.23;;;16.30;99.90;;;;;;5109911;28;20749;-67
2022/08/31 05:05:57;;;;;;;6.63;2.83;;;16.30;99.90;;;;;;5108438;28;20246;-67
2022/08/31 05:08:24;;;;;;;3.70;2.10;;;16.30;99.90;;;;;;5108859;28;20298;-67
2022/08/31 05:10:51;;;;;;;4.13;2.10;;;16.40;99.90;;;;;;5109321;28;20648;-67
2022/08/31 05:13:18;;;;;;;7.67;2.10;;;16.30;99.90;;;;;;5110158;28;20202;-67
2022/08/31 05:15:45;;;;;;;2.73;2.20;;;16.40;99.90;;;;;;5109291;28;20585;-67
2022/08/31 05:18:12;;;;;;;11.80;2.23;;;16.30;99.90;;;;;;5109545;28;20296;-67
2022/08/31 05:20:40;;;;;;;18.77;3.30;;;16.40;99.90;;;;;;5109649;28;20301;-67
2022/08/31 05:23:08;;;;;;;5.30;3.00;;;16.40;99.90;;;;;;5109435;28;20348;-67
2022/08/31 05:25:39;;;;;;;5.27;3.00;;;16.40;99.90;;;;;;5109144;28;20213;-67
2022/08/31 05:28:06;;;;;;;3.83;2.73;;;16.30;99.90;;;;;;5109733;28;20236;-67
2022/08/31 05:30:33;;;;;;;4.47;2.33;;;16.30;99.90;;;;;;5109615;28;20213;-67
2022/08/31 05:33:00;;;;;;;2.80;2.30;;;16.30;99.90;;;;;;5109453;28;20570;-67
2022/08/31 05:35:27;;;;;;;5.57;2.60;;;16.30;99.90;;;;;;5109714;28;20289;-67
2022/08/31 05:37:54;;;;;;;2.20;2.00;;;16.30;99.90;;;;;;5109074;28;20672;-67
2022/08/31 05:40:22;;;;;;;4.00;2.50;;;16.30;99.90;;;;;;5089388;28;20767;-67
2022/08/31 05:42:49;;;;;;;3.70;3.00;;;16.20;99.90;;;;;;5088761;28;20329;-67
2022/08/31 05:45:17;;;;;;;2.67;2.30;;;16.20;99.90;;;;;;5088802;28;20217;-67
2022/08/31 05:47:44;;;;;;;6.73;2.57;;;16.20;99.90;;;;;;5088645;28;20206;-67
2022/08/31 05:50:11;;;;;;;4.03;2.43;;;16.30;99.90;;;;;;5088714;28;20207;-69
2022/08/31 05:52:37;;;;;;;3.17;2.70;;;16.30;99.90;;;;;;5088229;28;20255;-67
2022/08/31 05:55:05;;;;;;;4.90;3.17;;;16.40;99.90;;;;;;5105805;28;20216;-67
2022/08/31 05:57:33;;;;;;;4.33;3.00;;;16.40;99.90;;;;;;5108648;28;20206;-67
2022/08/31 06:00:00;;;;;;;8.00;2.70;;;16.40;99.90;;;;;;5108740;28;20289;-67
2022/08/31 06:02:27;;;;;;;4.63;2.77;;;16.40;99.90;;;;;;5108525;28;20610;-67
2022/08/31 06:04:56;;;;;;;6.50;2.33;;;16.40;99.90;;;;;;5108684;28;20607;-67
2022/08/31 06:07:23;;;;;;;4.90;2.57;;;16.40;99.90;;;;;;5108407;28;20205;-66
2022/08/31 06:09:50;;;;;;;2.37;2.17;;;16.40;99.90;;;;;;5108584;27;20230;-67
2022/08/31 06:12:18;;;;;;;2.50;2.03;;;16.40;99.90;;;;;;5098722;28;20586;-67
2022/08/31 06:14:47;;;;;;;2.90;2.30;;;16.40;99.90;;;;;;5088257;28;20295;-67
2022/08/31 06:17:16;;;;;;;2.20;2.10;;;16.40;99.90;;;;;;5087759;28;20214;-67
2022/08/31 06:19:43;;;;;;;5.73;2.30;;;16.50;99.90;;;;;;5088757;28;20674;-67
2022/08/31 06:22:09;;;;;;;4.80;2.27;;;16.50;99.90;;;;;;5108260;28;20226;-67
2022/08/31 06:24:37;;;;;;;3.50;2.50;;;16.50;99.90;;;;;;5097610;28;20211;-67
2022/08/31 06:27:06;;;;;;;6.47;2.60;;;16.60;99.90;;;;;;5108033;28;20566;-67
2022/08/31 06:29:33;;;;;;;5.43;2.30;;;16.70;99.90;;;;;;5107882;28;20202;-66
2022/08/31 06:32:04;;;;;;;4.40;2.70;;;16.70;99.90;;;;;;5108061;28;20240;-67
2022/08/31 06:34:31;;;;;;;2.73;1.97;;;16.70;99.90;;;;;;5108441;28;20197;-66
2022/08/31 06:36:58;;;;;;;4.00;1.47;;;16.80;99.90;;;;;;5096351;28;20206;-67
2022/08/31 06:39:25;;;;;;;1.57;1.37;;;16.90;99.90;;;;;;5087733;28;20558;-67
2022/08/31 06:41:54;;;;;;;1.80;1.50;;;16.90;99.90;;;;;;5087475;28;20217;-67
2022/08/31 06:44:22;;;;;;;7.80;1.37;;;17.00;99.90;;;;;;5087720;28;20202;-67
2022/08/31 06:46:50;;;;;;;2.40;1.30;;;17.00;99.90;;;;;;5087470;28;20213;-67
2022/08/31 06:49:19;;;;;;;4.23;1.10;;;17.10;99.90;;;;;;5087822;28;20212;-67
2022/08/31 06:51:46;;;;;;;1.10;1.00;;;17.10;99.90;;;;;;5087368;28;20270;-67
2022/08/31 06:54:15;;;;;;;1.37;1.10;;;17.10;99.90;;;;;;5097050;28;20682;-67
2022/08/31 06:56:41;;;;;;;1.37;1.07;;;17.20;99.90;;;;;;5107623;28;20198;-66
2022/08/31 06:59:09;;;;;;;7.90;1.80;;;17.20;99.90;;;;;;5107544;28;20198;-67
2022/08/31 07:01:36;;;;;;;2.83;1.20;;;17.30;99.90;;;;;;5107393;28;20221;-67
2022/08/31 07:04:06;;;;;;;5.27;0.93;;;17.40;99.90;;;;;;5107566;28;20240;-67
2022/08/31 07:06:37;;;;;;;1.20;1.10;;;17.40;99.90;;;;;;5107658;28;20216;-67
2022/08/31 07:09:11;;;;;;;2.10;1.00;;;17.40;99.90;;;;;;5107685;28;20191;-67
2022/08/31 07:11:39;;;;;;;2.63;1.17;;;17.50;99.90;;;;;;5107631;28;20213;-67
2022/08/31 07:14:08;;;;;;;3.50;1.53;;;17.60;99.90;;;;;;5107768;28;20202;-67
2022/08/31 07:16:36;;;;;;;1.87;0.87;;;17.60;99.90;;;;;;5107337;28;20199;-66
2022/08/31 07:19:05;;;;;;;6.53;1.20;;;17.70;99.90;;;;;;5107702;28;20206;-67
2022/08/31 07:21:36;;;;;;;4.40;1.57;;;17.70;99.90;;;;;;5091468;28;20210;-67
2022/08/31 07:24:05;;;;;;;1.13;1.03;;;17.80;99.90;;;;;;5095360;28;20230;-67
2022/08/31 07:26:36;;;;;;;10.80;1.43;;;17.80;99.90;;;;;;5107364;28;20214;-67
2022/08/31 07:29:05;;;;;;;2.63;1.10;;;17.90;99.90;;;;;;5107451;28;20190;-67
2022/08/31 07:31:41;;;;;;;3.13;1.27;;;17.90;99.90;;;;;;5107581;28;20290;-67
2022/08/31 07:34:09;;;;;;;3.13;0.90;;;18.00;99.90;;;;;;5107809;28;20221;-67
2022/08/31 07:42:11;;;;;;;2.23;1.17;;;18.20;99.90;;;;;;5088778;28;20575;-67
2022/08/31 07:44:40;;;;;;;1.77;1.00;;;18.20;99.90;;;;;;5091083;28;20202;-67
2022/08/31 07:47:11;;;;;;;15.00;2.30;;;18.30;99.90;;;;;;5090465;28;20211;-67
2022/08/31 07:49:43;;;;;;;10.23;1.53;;;18.40;99.90;;;;;;5090423;28;20857;-67
2022/08/31 07:52:11;;;;;;;1.67;1.13;;;18.40;99.90;;;;;;5090375;28;20405;-67
2022/08/31 07:54:38;;;;;;;1.90;0.80;;;18.40;99.90;;;;;;5104110;28;20236;-67
2022/08/31 07:57:05;;;;;;;2.57;1.20;;;18.50;99.90;;;;;;5111248;28;20206;-67
2022/08/31 07:59:34;;;;;;;2.20;1.27;;;18.60;99.90;;;;;;5111300;28;20217;-67
2022/08/31 08:02:02;;;;;;;1.20;1.03;;;18.70;99.90;;;;;;5111088;28;20209;-67
2022/08/31 08:04:30;;;;;;;0.93;0.77;;;18.70;99.90;;;;;;5103770;28;20199;-67
2022/08/31 08:06:59;;;;;;;1.57;0.67;;;18.80;99.90;;;;;;5090531;28;20232;-67
2022/08/31 08:09:28;;;;;;;1.60;0.87;;;18.80;99.90;;;;;;5090341;28;20862;-67
2022/08/31 08:11:57;;;;;;;2.77;0.83;;;18.90;99.90;;;;;;5090202;28;20207;-67
2022/08/31 08:14:24;;;;;;;1.70;0.70;;;19.00;99.90;;;;;;5090424;28;20242;-67
2022/08/31 08:16:51;;;;;;;1.90;1.10;;;19.00;99.90;;;;;;5089840;28;20710;-67
2022/08/31 08:19:18;;;;;;;0.93;0.70;;;19.00;99.90;;;;;;5090718;28;20206;-67
2022/08/31 08:21:45;;;;;;;0.83;0.60;;;19.10;99.90;;;;;;5090053;28;20661;-67
2022/08/31 08:24:13;;;;;;;2.70;1.10;;;19.20;99.90;;;;;;5099755;28;20704;-67
2022/08/31 08:26:45;;;;;;;1.87;1.17;;;19.20;99.90;;;;;;5110449;28;20695;-67
2022/08/31 08:29:12;;;;;;;1.13;1.00;;;19.30;99.90;;;;;;5101288;28;20230;-68
2022/08/31 08:31:38;;;;;;;1.60;0.80;;;19.40;99.90;;;;;;5090173;28;20218;-67
2022/08/31 08:34:07;;;;;;;1.70;0.83;;;19.40;99.90;;;;;;5090476;28;20211;-67
2022/08/31 08:36:36;;;;;;;1.63;1.10;;;19.40;99.90;;;;;;5090303;28;20210;-67
2022/08/31 08:39:05;;;;;;;2.43;0.80;;;19.50;99.90;;;;;;5090141;28;20199;-67
2022/08/31 08:41:36;;;;;;;1.17;1.07;;;19.60;99.90;;;;;;5090115;28;20207;-68
2022/08/31 08:44:09;;;;;;;0.80;0.80;;;19.60;99.90;;;;;;5090260;28;20242;-67
2022/08/31 08:46:47;;;;;;;4.20;0.80;;;19.60;99.90;;;;;;5089724;28;20203;-67
2022/08/31 08:49:18;;;;;;;6.70;1.33;;;19.70;99.90;;;;;;5090219;28;20428;-68
2022/08/31 08:51:48;;;;;;;2.50;1.07;;;19.70;99.90;;;;;;5097816;28;20225;-68
2022/08/31 08:54:24;;;;;;;1.37;0.97;;;19.80;99.90;;;;;;5110247;28;20221;-67
2022/08/31 08:56:51;;;;;;;1.10;1.00;;;19.90;99.90;;;;;;5109930;28;20201;-67
2022/08/31 08:59:20;;;;;;;5.57;1.33;;;19.90;99.90;;;;;;5110141;27;20676;-67
2022/08/31 09:01:49;;;;;;;12.03;1.57;;;20.00;99.90;;;;;;5093723;28;20221;-67
2022/08/31 09:04:29;;;;;;;0.70;0.70;;;20.00;99.90;;;;;;5089688;28;20238;-67
2022/08/31 09:07:15;;;;;;;5.93;1.23;;;20.20;99.90;;;;;;5089654;28;20524;-68
2022/08/31 09:09:49;;;;;;;3.43;0.90;;;20.30;99.90;;;;;;5089446;28;20222;-67
2022/08/31 09:12:26;;;;;;;2.43;0.70;;;20.30;99.90;;;;;;5089429;28;20197;-67
2022/08/31 09:15:17;;;;;;;8.70;1.33;;;20.40;99.90;;;;;;5104009;28;20206;-67
2022/08/31 09:17:52;;;;;;;1.50;1.10;;;20.50;99.90;;;;;;5109325;28;20594;-67
2022/08/31 09:20:19;;;;;;;1.90;0.77;;;20.50;99.90;;;;;;5109443;28;20203;-67
2022/08/31 09:22:49;;;;;;;1.80;1.30;;;20.50;99.90;;;;;;5109525;28;20400;-67
2022/08/31 09:25:17;;;;;;;3.33;1.37;;;20.50;99.90;;;;;;5102243;28;20210;-67
2022/08/31 09:27:55;;;;;;;2.60;1.10;;;20.50;99.90;;;;;;5108813;28;20210;-67
2022/08/31 09:30:39;;;;;;;2.53;1.27;;;20.60;99.90;;;;;;5108906;28;20286;-67
2022/08/31 09:33:07;;;;;;;3.90;1.30;;;20.70;99.90;;;;;;5109392;28;20198;-67
2022/08/31 09:35:40;;;;;;;4.80;1.30;;;20.70;99.90;;;;;;5109242;28;20202;-67
2022/08/31 09:38:10;;;;;;;0.85;0.85;;;20.80;99.90;;;;;;5109421;28;20198;-67
2022/08/31 09:40:40;;;;;;;1.73;0.90;;;20.80;99.90;;;;;;5109546;28;20283;-67
2022/08/31 09:43:10;;;;;;;1.45;0.88;;;20.90;99.90;;;;;;5109141;27;20222;-67
2022/08/31 09:45:50;;;;;;;1.73;1.08;;;20.90;99.90;;;;;;5108908;28;20197;-68
2022/08/31 09:48:39;;;;;;;1.75;1.00;;;21.00;99.90;;;;;;5098354;27;20217;-67
2022/08/31 09:51:09;;;;;;;3.67;1.20;;;21.10;99.90;;;;;;5088618;28;20195;-67
2022/08/31 09:56:26;;;;;;;1.88;0.98;;;21.20;99.90;;;;;;5108660;28;20189;-67
2022/08/31 09:58:55;;;;;;;15.38;2.08;;;21.20;99.90;;;;;;5108721;28;20202;-67
2022/08/31 10:01:32;;;;;;;2.30;1.20;;;21.20;99.90;;;;;;5108747;28;20199;-67
2022/08/31 10:04:17;;;;;;;35.15;4.75;;;21.20;99.90;;;;;;5107862;28;20221;-67
2022/08/31 10:06:50;;;;;;;0.70;0.70;;;21.20;99.90;;;;;;5108872;28;20194;-67
2022/08/31 10:09:28;;;;;;;1.63;1.00;;;21.30;99.90;;;;;;5108831;28;20570;-67
2022/08/31 10:11:58;;;;;;;0.95;0.95;;;21.40;99.90;;;;;;5088150;28;20205;-67
2022/08/31 10:14:33;;;;;;;4.05;1.02;;;21.50;99.90;;;;;;5088202;28;20218;-67
2022/08/31 10:17:09;;;;;;;1.27;0.88;;;21.50;99.90;;;;;;5088132;28;20269;-68
2022/08/31 10:19:52;;;;;;;2.05;1.00;;;21.60;99.90;;;;;;5087845;28;20194;-68
2022/08/31 10:22:27;;;;;;;1.58;1.05;;;21.70;99.90;;;;;;5087759;28;20640;-67
2022/08/31 10:25:06;;;;;;;2.85;1.05;;;21.80;99.90;;;;;;5103488;28;20255;-67
2022/08/31 10:27:39;;;;;;;1.10;1.00;;;21.80;99.90;;;;;;5108379;28;20570;-67
2022/08/31 10:30:11;;;;;;;5.03;1.08;;;21.90;99.90;;;;;;5108078;28;20243;-67
2022/08/31 10:32:44;;;;;;;2.10;0.90;;;22.00;99.90;;;;;;5108160;28;20597;-68
2022/08/31 10:35:18;;;;;;;1.48;0.90;;;22.10;99.90;;;;;;5108368;28;20194;-68
2022/08/31 10:37:53;;;;;;;1.17;0.88;;;22.10;99.90;;;;;;5108134;28;20202;-68
2022/08/31 10:40:27;;;;;;;2.35;0.98;;;22.30;99.90;;;;;;5098199;28;20237;-67
2022/08/31 10:43:08;;;;;;;1.52;0.63;;;22.50;99.90;;;;;;5108073;28;20190;-68
2022/08/31 10:45:39;;;;;;;0.77;0.55;;;22.60;99.90;;;;;;5107949;28;20210;-68
2022/08/31 10:48:11;;;;;;;0.68;0.68;;;22.60;99.90;;;;;;5108020;28;20652;-68
2022/08/31 10:50:45;;;;;;;2.15;0.88;;;22.60;99.90;;;;;;5107837;28;20686;-68
2022/08/31 10:53:22;;;;;;;3.88;1.00;;;22.70;99.90;;;;;;5107650;28;20232;-67
2022/08/31 10:55:57;;;;;;;1.02;0.80;;;22.80;99.90;;;;;;5107831;28;20589;-68
2022/08/31 10:58:39;;;;;;;3.58;1.00;;;22.90;99.90;;;;;;5107764;28;20190;-67
2022/08/31 11:01:16;;;;;;;2.75;1.00;;;22.90;99.90;;;;;;5107559;28;20190;-68
2022/08/31 11:04:17;;;;;;;2.47;1.00;;;23.00;99.90;;;;;;5107893;28;20228;-67
2022/08/31 11:06:51;;;;;;;0.82;0.82;;;23.10;99.90;;;;;;5107379;28;20198;-68
2022/08/31 11:09:23;;;;;;;1.00;0.63;;;23.10;99.90;;;;;;5107739;28;20224;-68
2022/08/31 11:11:56;;;;;;;0.95;0.85;;;23.20;99.90;;;;;;5107692;28;20194;-67
2022/08/31 11:14:43;;;;;;;0.70;0.60;;;23.20;99.90;;;;;;5107705;28;20220;-68
2022/08/31 11:17:31;;;;;;;1.45;0.93;;;23.10;99.90;;;;;;5111618;28;20205;-68
2022/08/31 11:20:29;;;;;;;2.80;0.85;;;22.90;99.90;;;;;;5109247;28;20194;-68
2022/08/31 11:23:19;;;;;;;2.05;0.95;;;22.90;99.90;;;;;;5091562;28;20191;-68
2022/08/31 11:26:16;;;;;;;1.48;0.80;;;23.10;99.90;;;;;;5091396;28;20191;-67
2022/08/31 11:28:47;;;;;;;1.27;0.82;;;23.20;99.90;;;;;;5064066;28;20207;-68
2022/08/31 11:31:22;;;;;;;1.40;1.10;;;23.20;99.50;;;;;;5091322;28;20224;-67
2022/08/31 11:33:55;;;;;;;0.90;0.80;;;23.20;99.90;;;;;;5091248;28;20247;-67
2022/08/31 11:36:48;;;;;;;1.05;1.02;;;23.30;99.90;;;;;;5091389;28;20222;-68
2022/08/31 11:39:34;;;;;;;1.10;0.70;;;23.50;99.70;;;;;;5091213;28;20201;-68
2022/08/31 11:42:02;;;;;;;1.85;0.85;;;23.40;99.10;;;;;;5091149;28;20259;-67
2022/08/31 11:44:59;;;;;;;1.63;1.40;;;23.40;99.70;;;;;;5090999;28;20317;-68
2022/08/31 11:47:37;;;;;;;0.80;0.80;;;23.50;99.90;;;;;;5090732;28;20206;-68
2022/08/31 11:50:09;;;;;;;3.03;1.00;;;23.70;99.70;;;;;;5102913;28;20201;-68
2022/08/31 11:52:47;;;;;;;0.90;0.90;;;23.70;99.30;;;;;;5110871;28;20242;-68
2022/08/31 11:55:27;;;;;;;0.93;0.85;;;23.70;99.30;;;;;;5111329;28;20237;-68
2022/08/31 11:58:18;;;;;;;1.20;1.02;;;23.60;99.00;;;;;;5110998;28;20243;-68
2022/08/31 12:00:49;;;;;;;0.85;0.75;;;23.50;98.80;;;;;;5110754;28;20194;-68
2022/08/31 12:03:37;;;;;;;2.55;0.70;;;23.50;98.90;;;;;;5110929;28;20571;-68
2022/08/31 12:06:09;;;;;;;1.88;0.70;;;23.50;98.70;;;;;;5111153;28;20197;-68
2022/08/31 12:08:51;;;;;;;1.52;1.00;;;23.50;98.30;;;;;;5111021;28;20222;-67
2022/08/31 12:11:27;;;;;;;1.08;0.73;;;23.60;98.60;;;;;;5111031;28;20194;-68
2022/08/31 12:14:00;;;;;;;2.30;1.20;;;23.80;98.90;;;;;;5110379;28;20664;-68
2022/08/31 12:16:40;;;;;;;1.02;0.55;;;24.10;98.40;;;;;;5110779;28;20201;-68
2022/08/31 12:25:23;;;;;;;1.95;1.05;;;24.20;97.70;;;;;;5107842;28;20278;-68
2022/08/31 12:28:04;;;;;;;0.70;0.70;;;24.00;97.60;;;;;;5109316;28;20198;-68
2022/08/31 12:30:31;;;;;;;4.03;0.70;;;23.90;97.80;;;;;;5110695;28;20194;-68
2022/08/31 12:33:01;;;;;;;6.05;1.52;;;23.80;97.60;;;;;;5110406;28;20208;-68
2022/08/31 12:35:30;;;;;;;2.30;1.10;;;24.00;97.20;;;;;;5110680;28;20197;-68
2022/08/31 12:37:59;;;;;;;5.88;1.40;;;24.10;96.60;;;;;;5110638;28;20234;-68
2022/08/31 12:40:29;;;;;;;3.28;0.93;;;24.20;97.00;;;;;;5090452;28;20978;-68
2022/08/31 12:43:01;;;;;;;0.85;0.80;;;24.20;97.60;;;;;;5089918;28;20669;-68
2022/08/31 12:45:52;;;;;;;0.90;0.80;;;24.10;97.30;;;;;;5090167;28;20219;-68
2022/08/31 12:48:31;;;;;;;2.00;0.73;;;23.90;97.60;;;;;;5090190;28;20197;-68
2022/08/31 12:51:07;;;;;;;3.20;1.25;;;24.00;97.10;;;;;;5089579;28;20657;-69
2022/08/31 12:54:00;;;;;;;3.00;0.80;;;24.30;97.00;;;;;;5094164;28;20266;-68
2022/08/31 12:56:35;;;;;;;1.02;0.98;;;24.40;96.70;;;;;;5102383;28;20660;-68
2022/08/31 12:59:13;;;;;;;2.45;1.02;;;24.50;96.60;;;;;;5110022;28;20200;-68
2022/08/31 13:01:43;;;;;;;1.23;0.93;;;24.70;96.20;;;;;;5109798;28;20195;-68
2022/08/31 13:04:12;;;;;;;1.38;0.90;;;24.80;95.20;;;;;;5109905;28;20238;-68
2022/08/31 13:06:43;;;;;;;1.27;0.80;;;25.00;95.60;;;;;;5109785;28;20229;-68
2022/08/31 13:09:24;;;;;;;1.20;1.10;;;25.30;95.30;;;;;;5109707;28;20221;-67
2022/08/31 13:11:55;;;;;;;0.80;0.75;;;25.60;95.10;;;;;;5109623;28;20190;-68
2022/08/31 13:14:25;;;;;;;1.02;0.85;;;25.40;94.00;;;;;;5109818;28;20756;-68
2022/08/31 13:16:54;;;;;;;2.03;1.30;;;25.30;94.30;;;;;;5109295;28;20191;-68
2022/08/31 13:19:25;;;;;;;1.08;0.98;;;25.40;95.10;;;;;;5109706;28;20229;-68
2022/08/31 13:21:55;;;;;;;1.50;1.23;;;25.40;95.10;;;;;;5090800;28;20207;-68
2022/08/31 13:24:27;;;;;;;2.30;0.80;;;25.30;93.70;;;;;;5099762;28;20234;-68
2022/08/31 13:27:16;;;;;;;1.52;0.73;;;25.10;93.90;;;;;;5109209;28;20190;-68